地図

経路データ

SID SEASON NUMBER BASIN SUBBASIN NAME ISO_TIME NATURE LAT LON WMO_WIND WMO_PRES WMO_AGENCY TRACK_TYPE DIST2LAND LANDFALL IFLAG USA_AGENCY USA_ATCF_ID USA_LAT USA_LON USA_RECORD USA_STATUS USA_WIND USA_PRES USA_SSHS USA_R34_NE USA_R34_SE USA_R34_SW USA_R34_NW USA_R50_NE USA_R50_SE USA_R50_SW USA_R50_NW USA_R64_NE USA_R64_SE USA_R64_SW USA_R64_NW USA_POCI USA_ROCI USA_RMW USA_EYE TOKYO_LAT TOKYO_LON TOKYO_GRADE TOKYO_WIND TOKYO_PRES TOKYO_R50_DIR TOKYO_R50_LONG TOKYO_R50_SHORT TOKYO_R30_DIR TOKYO_R30_LONG TOKYO_R30_SHORT TOKYO_LAND CMA_LAT CMA_LON CMA_CAT CMA_WIND CMA_PRES HKO_LAT HKO_LON HKO_CAT HKO_WIND HKO_PRES NEWDELHI_LAT NEWDELHI_LON NEWDELHI_GRADE NEWDELHI_WIND NEWDELHI_PRES NEWDELHI_CI NEWDELHI_DP NEWDELHI_POCI REUNION_LAT REUNION_LON REUNION_TYPE REUNION_WIND REUNION_PRES REUNION_TNUM REUNION_CI REUNION_RMW REUNION_R34_NE REUNION_R34_SE REUNION_R34_SW REUNION_R34_NW REUNION_R50_NE REUNION_R50_SE REUNION_R50_SW REUNION_R50_NW REUNION_R64_NE REUNION_R64_SE REUNION_R64_SW REUNION_R64_NW BOM_LAT BOM_LON BOM_TYPE BOM_WIND BOM_PRES BOM_TNUM BOM_CI BOM_RMW BOM_R34_NE BOM_R34_SE BOM_R34_SW BOM_R34_NW BOM_R50_NE BOM_R50_SE BOM_R50_SW BOM_R50_NW BOM_R64_NE BOM_R64_SE BOM_R64_SW BOM_R64_NW BOM_ROCI BOM_POCI BOM_EYE BOM_POS_METHOD BOM_PRES_METHOD NADI_LAT NADI_LON NADI_CAT NADI_WIND NADI_PRES WELLINGTON_LAT WELLINGTON_LON WELLINGTON_WIND WELLINGTON_PRES DS824_LAT DS824_LON DS824_STAGE DS824_WIND DS824_PRES TD9636_LAT TD9636_LON TD9636_STAGE TD9636_WIND TD9636_PRES TD9635_LAT TD9635_LON TD9635_WIND TD9635_PRES TD9635_ROCI NEUMANN_LAT NEUMANN_LON NEUMANN_CLASS NEUMANN_WIND NEUMANN_PRES MLC_LAT MLC_LON MLC_CLASS MLC_WIND MLC_PRES USA_GUST BOM_GUST BOM_GUST_PER REUNION_GUST REUNION_GUST_PER USA_SEAHGT USA_SEARAD_NE USA_SEARAD_SE USA_SEARAD_SW USA_SEARAD_NW STORM_SPEED STORM_DIR
1950243N15304 1950 68 NA NA DOG 1950-08-30 18:00:00 TS 15.2000 -55.6000 80 hurdat_atl main 772 732 O_____________ hurdat_atl AL041950 15.2000 -55.6000 HU 80 1 13 282
1950243N15304 1950 68 NA NA DOG 1950-08-30 21:00:00 TS 15.3379 -56.2574 main 724 697 P_____________ AL041950 15.3379 -56.2574 HU 85 2 13 283
1950243N15304 1950 68 NA NA DOG 1950-08-31 00:00:00 TS 15.5000 -56.9000 90 hurdat_atl main 697 676 O_____________ hurdat_atl AL041950 15.5000 -56.9000 HU 90 2 13 287
1950243N15304 1950 68 NA NA DOG 1950-08-31 03:00:00 TS 15.6998 -57.5150 main 676 661 P_____________ AL041950 15.6998 -57.5150 HU 95 2 12 289
1950243N15304 1950 68 NA NA DOG 1950-08-31 06:00:00 TS 15.9000 -58.1000 100 hurdat_atl main 661 647 O_____________ hurdat_atl AL041950 15.9000 -58.1000 HU 100 3 12 288
1950243N15304 1950 68 NA NA DOG 1950-08-31 09:00:00 TS 16.0574 -58.6726 main 653 642 P_____________ AL041950 16.0574 -58.6726 HU 105 3 11 286
1950243N15304 1950 68 NA NA DOG 1950-08-31 12:00:00 TS 16.2000 -59.2000 110 953 hurdat_atl main 645 639 O_____________ hurdat_atl AL041950 16.2000 -59.2000 HU 110 953 3 10 287
1950243N15304 1950 68 NA NA DOG 1950-08-31 15:00:00 TS 16.3498 -59.6726 main 642 614 P_____________ AL041950 16.3498 -59.6726 HU 112 3 9 289
1950243N15304 1950 68 NA NA DOG 1950-08-31 18:00:00 TS 16.5000 -60.1000 115 hurdat_atl main 614 570 O_____________ hurdat_atl AL041950 16.5000 -60.1000 HU 115 4 9 290
1950243N15304 1950 68 NA CS DOG 1950-08-31 21:00:00 TS 16.6424 -60.5076 main 570 522 P_____________ AL041950 16.6424 -60.5076 HU 115 4 8 291
1950243N15304 1950 68 NA CS DOG 1950-09-01 00:00:00 TS 16.8000 -60.9000 115 hurdat_atl main 522 475 O_____________ hurdat_atl AL041950 16.8000 -60.9000 HU 115 4 8 294
1950243N15304 1950 68 NA CS DOG 1950-09-01 03:00:00 TS 16.9850 -61.3076 main 475 428 P_____________ AL041950 16.9850 -61.3076 HU 115 4 9 298
1950243N15304 1950 68 NA CS DOG 1950-09-01 06:00:00 TS 17.2000 -61.7000 115 hurdat_atl main 428 391 O_____________ hurdat_atl AL041950 17.2000 -61.7000 HU 115 4 9 303
1950243N15304 1950 68 NA CS DOG 1950-09-01 09:00:00 TS 17.4424 -62.0576 main 381 343 P_____________ AL041950 17.4424 -62.0576 HU 112 3 8 307
1950243N15304 1950 68 NA CS DOG 1950-09-01 12:00:00 TS 17.7000 -62.4000 110 hurdat_atl main 343 297 O_____________ hurdat_atl AL041950 17.7000 -62.4000 HU 110 3 9 307
1950243N15304 1950 68 NA CS DOG 1950-09-01 15:00:00 TS 17.9575 -62.7725 main 296 264 P_____________ AL041950 17.9575 -62.7725 HU 107 3 8 307
1950243N15304 1950 68 NA CS DOG 1950-09-01 18:00:00 TS 18.2000 -63.1000 105 hurdat_atl main 264 242 O_____________ hurdat_atl AL041950 18.2000 -63.1000 HU 105 3 7 310
1950243N15304 1950 68 NA CS DOG 1950-09-01 21:00:00 TS 18.3999 -63.3227 main 242 221 P_____________ AL041950 18.3999 -63.3227 HU 105 3 6 317
1950243N15304 1950 68 NA CS DOG 1950-09-02 00:00:00 TS 18.6000 -63.5000 105 hurdat_atl main 222 205 O_____________ hurdat_atl AL041950 18.6000 -63.5000 HU 105 3 6 322
1950243N15304 1950 68 NA CS DOG 1950-09-02 03:00:00 TS 18.8500 -63.7000 main 205 191 P_____________ AL041950 18.8500 -63.7000 HU 102 3 6 323
1950243N15304 1950 68 NA NA DOG 1950-09-02 06:00:00 TS 19.1000 -63.9000 100 hurdat_atl main 195 187 O_____________ hurdat_atl AL041950 19.1000 -63.9000 HU 100 3 6 320
1950243N15304 1950 68 NA NA DOG 1950-09-02 09:00:00 TS 19.2925 -64.1001 main 187 176 P_____________ AL041950 19.2925 -64.1001 HU 100 3 6 317
1950243N15304 1950 68 NA NA DOG 1950-09-02 12:00:00 TS 19.5000 -64.3000 100 962 hurdat_atl main 183 183 O_____________ hurdat_atl AL041950 19.5000 -64.3000 HU 100 962 3 6 322
1950243N15304 1950 68 NA NA DOG 1950-09-02 15:00:00 TS 19.7925 -64.5149 main 194 194 P_____________ AL041950 19.7925 -64.5149 HU 102 3 7 328
1950243N15304 1950 68 NA NA DOG 1950-09-02 18:00:00 TS 20.1000 -64.7000 105 hurdat_atl main 212 212 O_____________ hurdat_atl AL041950 20.1000 -64.7000 HU 105 3 6 333
1950243N15304 1950 68 NA NA DOG 1950-09-02 21:00:00 TS 20.3575 -64.8226 main 238 235 P_____________ AL041950 20.3575 -64.8226 HU 105 3 5 340
1950243N15304 1950 68 NA NA DOG 1950-09-03 00:00:00 TS 20.6000 -64.9000 105 hurdat_atl main 256 256 O_____________ hurdat_atl AL041950 20.6000 -64.9000 HU 105 3 5 346
1950243N15304 1950 68 NA NA DOG 1950-09-03 03:00:00 TS 20.8500 -64.9576 main 275 275 P_____________ AL041950 20.8500 -64.9576 HU 105 3 5 349
1950243N15304 1950 68 NA NA DOG 1950-09-03 06:00:00 TS 21.1000 -65.0000 105 hurdat_atl main 308 308 O_____________ hurdat_atl AL041950 21.1000 -65.0000 HU 105 3 5 350
1950243N15304 1950 68 NA NA DOG 1950-09-03 09:00:00 TS 21.3500 -65.0500 main 339 328 P_____________ AL041950 21.3500 -65.0500 HU 105 3 5 349
1950243N15304 1950 68 NA NA DOG 1950-09-03 12:00:00 TS 21.6000 -65.1000 105 hurdat_atl main 361 361 O_____________ hurdat_atl AL041950 21.6000 -65.1000 HU 105 3 5 351
1950243N15304 1950 68 NA NA DOG 1950-09-03 15:00:00 TS 21.8650 -65.1425 main 394 393 P_____________ AL041950 21.8650 -65.1425 HU 105 3 5 349
1950243N15304 1950 68 NA NA DOG 1950-09-03 18:00:00 TS 22.1000 -65.2000 105 hurdat_atl main 415 415 O_____________ hurdat_atl AL041950 22.1000 -65.2000 HU 105 3 4 342
1950243N15304 1950 68 NA NA DOG 1950-09-03 21:00:00 TS 22.2650 -65.2850 main 437 436 P_____________ AL041950 22.2650 -65.2850 HU 105 3 4 329
1950243N15304 1950 68 NA NA DOG 1950-09-04 00:00:00 TS 22.4000 -65.4000 105 hurdat_atl main 447 447 O_____________ hurdat_atl AL041950 22.4000 -65.4000 HU 105 3 4 320
1950243N15304 1950 68 NA NA DOG 1950-09-04 03:00:00 TS 22.5425 -65.5425 main 458 458 P_____________ AL041950 22.5425 -65.5425 HU 105 3 4 317
1950243N15304 1950 68 NA NA DOG 1950-09-04 06:00:00 TS 22.7000 -65.7000 105 hurdat_atl main 480 480 O_____________ hurdat_atl AL041950 22.7000 -65.7000 HU 105 3 5 322
1950243N15304 1950 68 NA NA DOG 1950-09-04 09:00:00 TS 22.9000 -65.8425 main 503 503 P_____________ AL041950 22.9000 -65.8425 HU 105 3 5 325
1950243N15304 1950 68 NA NA DOG 1950-09-04 12:00:00 TS 23.1000 -66.0000 105 hurdat_atl main 525 525 O_____________ hurdat_atl AL041950 23.1000 -66.0000 HU 105 3 5 318
1950243N15304 1950 68 NA NA DOG 1950-09-04 15:00:00 TS 23.2575 -66.1926 main 547 544 P_____________ AL041950 23.2575 -66.1926 HU 107 3 5 309
1950243N15304 1950 68 NA NA DOG 1950-09-04 18:00:00 TS 23.4000 -66.4000 110 hurdat_atl main 547 542 O_____________ hurdat_atl AL041950 23.4000 -66.4000 HU 110 3 5 308
1950243N15304 1950 68 NA NA DOG 1950-09-04 21:00:00 TS 23.5424 -66.5926 main 546 546 P_____________ AL041950 23.5424 -66.5926 HU 112 3 5 309
1950243N15304 1950 68 NA NA DOG 1950-09-05 00:00:00 TS 23.7000 -66.8000 115 hurdat_atl main 555 551 O_____________ hurdat_atl AL041950 23.7000 -66.8000 HU 115 4 5 309
1950243N15304 1950 68 NA NA DOG 1950-09-05 03:00:00 TS 23.8850 -67.0500 main 562 562 P_____________ AL041950 23.8850 -67.0500 HU 117 4 6 311
1950243N15304 1950 68 NA NA DOG 1950-09-05 06:00:00 TS 24.1000 -67.3000 120 hurdat_atl main 575 575 O_____________ hurdat_atl AL041950 24.1000 -67.3000 HU 120 4 6 317
1950243N15304 1950 68 NA NA DOG 1950-09-05 09:00:00 TS 24.3274 -67.5002 main 585 585 P_____________ AL041950 24.3274 -67.5002 HU 122 4 6 324
1950243N15304 1950 68 NA NA DOG 1950-09-05 12:00:00 TS 24.6000 -67.7000 125 hurdat_atl main 607 607 O_____________ hurdat_atl AL041950 24.6000 -67.7000 HU 125 4 7 325
1950243N15304 1950 68 NA NA DOG 1950-09-05 15:00:00 TS 24.9276 -67.9648 main 627 627 P_____________ AL041950 24.9276 -67.9648 HU 125 4 8 327
1950243N15304 1950 68 NA NA DOG 1950-09-05 18:00:00 TS 25.3000 -68.2000 125 hurdat_atl main 662 662 O_____________ hurdat_atl AL041950 25.3000 -68.2000 HU 125 4 8 336
1950243N15304 1950 68 NA NA DOG 1950-09-05 21:00:00 TS 25.6999 -68.3376 main 694 694 P_____________ AL041950 25.6999 -68.3376 HU 125 4 8 347
1950243N15304 1950 68 NA NA DOG 1950-09-06 00:00:00 TS 26.1000 -68.4000 125 hurdat_atl main 720 720 O_____________ hurdat_atl AL041950 26.1000 -68.4000 HU 125 4 8 354
1950243N15304 1950 68 NA NA DOG 1950-09-06 03:00:00 TS 26.4575 -68.4300 main 754 754 P_____________ AL041950 26.4575 -68.4300 HU 122 4 7 0
1950243N15304 1950 68 NA NA DOG 1950-09-06 06:00:00 TS 26.8000 -68.4000 120 hurdat_atl main 780 780 O_____________ hurdat_atl AL041950 26.8000 -68.4000 HU 120 4 7 9
1950243N15304 1950 68 NA NA DOG 1950-09-06 09:00:00 TS 27.1500 -68.3076 main 822 822 P_____________ AL041950 27.1500 -68.3076 HU 120 4 7 14
1950243N15304 1950 68 NA NA DOG 1950-09-06 12:00:00 TS 27.5000 -68.2000 120 hurdat_atl main 855 855 O_____________ hurdat_atl AL041950 27.5000 -68.2000 HU 120 4 7 12
1950243N15304 1950 68 NA NA DOG 1950-09-06 15:00:00 TS 27.8500 -68.1424 main 888 888 P_____________ AL041950 27.8500 -68.1424 HU 120 4 7 7
1950243N15304 1950 68 NA NA DOG 1950-09-06 18:00:00 TS 28.2000 -68.1000 120 hurdat_atl main 925 925 O_____________ hurdat_atl AL041950 28.2000 -68.1000 HU 120 4 7 6
1950243N15304 1950 68 NA NA DOG 1950-09-06 21:00:00 TS 28.5500 -68.0500 main 967 958 P_____________ AL041950 28.5500 -68.0500 HU 117 4 7 7
1950243N15304 1950 68 NA NA DOG 1950-09-07 00:00:00 TS 28.9000 -68.0000 115 hurdat_atl main 996 996 O_____________ hurdat_atl AL041950 28.9000 -68.0000 HU 115 4 7 7
1950243N15304 1950 68 NA NA DOG 1950-09-07 03:00:00 TS 29.2575 -67.9648 main 998 984 P_____________ AL041950 29.2575 -67.9648 HU 110 3 7 7
1950243N15304 1950 68 NA NA DOG 1950-09-07 06:00:00 TS 29.6000 -67.9000 105 hurdat_atl main 984 971 O_____________ hurdat_atl AL041950 29.6000 -67.9000 HU 105 3 7 15
1950243N15304 1950 68 NA NA DOG 1950-09-07 09:00:00 TS 29.9375 -67.7577 main 971 964 P_____________ AL041950 29.9375 -67.7577 HU 102 3 7 23
1950243N15304 1950 68 NA NA DOG 1950-09-07 12:00:00 TS 30.2000 -67.6000 100 hurdat_atl main 964 956 O_____________ hurdat_atl AL041950 30.2000 -67.6000 HU 100 3 5 31
1950243N15304 1950 68 NA NA DOG 1950-09-07 15:00:00 TS 30.3300 -67.4849 main 963 956 P_____________ AL041950 30.3300 -67.4849 HU 92 2 3 41
1950243N15304 1950 68 NA NA DOG 1950-09-07 18:00:00 TS 30.4000 -67.4000 85 972 hurdat_atl main 963 956 O_____________ hurdat_atl AL041950 30.4000 -67.4000 HU 85 972 2 2 38
1950243N15304 1950 68 NA NA DOG 1950-09-07 21:00:00 TS 30.5000 -67.3275 main 963 956 P_____________ AL041950 30.5000 -67.3275 HU 82 1 2 25
1950243N15304 1950 68 NA NA DOG 1950-09-08 00:00:00 TS 30.6000 -67.3000 80 hurdat_atl main 956 949 O_____________ hurdat_atl AL041950 30.6000 -67.3000 HU 80 1 2 8
1950243N15304 1950 68 NA NA DOG 1950-09-08 03:00:00 TS 30.7075 -67.3275 main 949 934 P_____________ AL041950 30.7075 -67.3275 HU 77 1 2 335
1950243N15304 1950 68 NA NA DOG 1950-09-08 06:00:00 TS 30.8000 -67.4000 75 hurdat_atl main 934 920 O_____________ hurdat_atl AL041950 30.8000 -67.4000 HU 75 1 2 318
1950243N15304 1950 68 NA NA DOG 1950-09-08 09:00:00 TS 30.8575 -67.4850 main 920 913 P_____________ AL041950 30.8575 -67.4850 HU 75 1 2 300
1950243N15304 1950 68 NA NA DOG 1950-09-08 12:00:00 TS 30.9000 -67.6000 75 hurdat_atl main 913 898 O_____________ hurdat_atl AL041950 30.9000 -67.6000 HU 75 1 2 295
1950243N15304 1950 68 NA NA DOG 1950-09-08 15:00:00 TS 30.9575 -67.7425 main 898 883 P_____________ AL041950 30.9575 -67.7425 HU 75 1 3 291
1950243N15304 1950 68 NA NA DOG 1950-09-08 18:00:00 TS 31.0000 -67.9000 75 hurdat_atl main 883 876 O_____________ hurdat_atl AL041950 31.0000 -67.9000 HU 75 1 3 282
1950243N15304 1950 68 NA NA DOG 1950-09-08 21:00:00 TS 31.0150 -68.0500 main 876 862 P_____________ AL041950 31.0150 -68.0500 HU 72 1 3 270
1950243N15304 1950 68 NA NA DOG 1950-09-09 00:00:00 TS 31.0000 -68.2000 70 hurdat_atl main 862 854 O_____________ hurdat_atl AL041950 31.0000 -68.2000 HU 70 1 3 260
1950243N15304 1950 68 NA NA DOG 1950-09-09 03:00:00 TS 30.9725 -68.3424 main 854 847 P_____________ AL041950 30.9725 -68.3424 HU 70 1 3 249
1950243N15304 1950 68 NA NA DOG 1950-09-09 06:00:00 TS 30.9000 -68.5000 70 hurdat_atl main 847 840 O_____________ hurdat_atl AL041950 30.9000 -68.5000 HU 70 1 4 234
1950243N15304 1950 68 NA NA DOG 1950-09-09 09:00:00 TS 30.7500 -68.6926 main 841 840 P_____________ AL041950 30.7500 -68.6926 HU 70 1 5 229
1950243N15304 1950 68 NA NA DOG 1950-09-09 12:00:00 TS 30.6000 -68.9000 70 hurdat_atl main 840 832 O_____________ hurdat_atl AL041950 30.6000 -68.9000 HU 70 1 4 237
1950243N15304 1950 68 NA NA DOG 1950-09-09 15:00:00 TS 30.5348 -69.0774 main 832 817 P_____________ AL041950 30.5348 -69.0774 HU 67 1 4 254
1950243N15304 1950 68 NA NA DOG 1950-09-09 18:00:00 TS 30.5000 -69.3000 65 987 hurdat_atl main 817 802 O_____________ hurdat_atl AL041950 30.5000 -69.3000 HU 65 987 1 5 258
1950243N15304 1950 68 NA NA DOG 1950-09-09 21:00:00 TS 30.4351 -69.6352 main 802 773 P_____________ AL041950 30.4351 -69.6352 HU 65 1 6 261
1950243N15304 1950 68 NA NA DOG 1950-09-10 00:00:00 TS 30.4000 -70.0000 65 hurdat_atl main 773 752 O_____________ hurdat_atl AL041950 30.4000 -70.0000 HU 65 1 6 267
1950243N15304 1950 68 NA NA DOG 1950-09-10 03:00:00 TS 30.4050 -70.3226 main 752 723 P_____________ AL041950 30.4050 -70.3226 HU 65 1 5 281
1950243N15304 1950 68 NA NA DOG 1950-09-10 06:00:00 TS 30.5000 -70.6000 65 hurdat_atl main 723 694 O_____________ hurdat_atl AL041950 30.5000 -70.6000 HU 65 1 5 304
1950243N15304 1950 68 NA NA DOG 1950-09-10 09:00:00 TS 30.6824 -70.8078 main 694 657 P_____________ AL041950 30.6824 -70.8078 HU 65 1 6 325
1950243N15304 1950 68 NA NA DOG 1950-09-10 12:00:00 TS 31.0000 -71.0000 65 986 hurdat_atl main 657 613 O_____________ hurdat_atl AL041950 31.0000 -71.0000 HU 65 986 1 8 334
1950243N15304 1950 68 NA NA DOG 1950-09-10 15:00:00 TS 31.4400 -71.2352 main 613 549 P_____________ AL041950 31.4400 -71.2352 HU 65 986 1 11 337
1950243N15304 1950 68 NA NA DOG 1950-09-10 18:00:00 TS 32.0000 -71.5000 65 986 hurdat_atl main 549 487 O_____________ hurdat_atl AL041950 32.0000 -71.5000 HU 65 986 1 13 337
1950243N15304 1950 68 NA NA DOG 1950-09-10 21:00:00 TS 32.6052 -71.8293 main 487 417 P_____________ AL041950 32.6052 -71.8293 HU 70 984 1 14 339
1950243N15304 1950 68 NA NA DOG 1950-09-11 00:00:00 TS 33.3000 -72.1000 75 982 hurdat_atl main 417 361 O_____________ hurdat_atl AL041950 33.3000 -72.1000 HU 75 982 1 15 348
1950243N15304 1950 68 NA NA DOG 1950-09-11 03:00:00 TS 34.0849 -72.2176 main 354 314 P_____________ AL041950 34.0849 -72.2176 HU 77 980 1 16 357
1950243N15304 1950 68 NA NA DOG 1950-09-11 06:00:00 TS 34.9000 -72.2000 80 978 hurdat_atl main 314 303 O_____________ hurdat_atl AL041950 34.9000 -72.2000 HU 80 978 1 16 4
1950243N15304 1950 68 NA NA DOG 1950-09-11 09:00:00 TS 35.6575 -72.0951 main 306 305 P_____________ AL041950 35.6575 -72.0951 HU 82 976 1 15 9
1950243N15304 1950 68 NA NA DOG 1950-09-11 12:00:00 TS 36.4000 -71.9000 85 974 hurdat_atl main 329 318 O_____________ hurdat_atl AL041950 36.4000 -71.9000 HU 85 974 2 16 11
1950243N15304 1950 68 NA NA DOG 1950-09-11 15:00:00 TS 37.1793 -71.7311 main 322 307 P_____________ AL041950 37.1793 -71.7311 HU 85 973 2 16 15
1950243N15304 1950 68 NA NA DOG 1950-09-11 18:00:00 TS 37.9000 -71.4000 85 972 hurdat_atl main 307 298 O_____________ hurdat_atl AL041950 37.9000 -71.4000 HU 85 972 2 15 29
1950243N15304 1950 68 NA NA DOG 1950-09-11 21:00:00 TS 38.5102 -70.7831 main 298 282 P_____________ AL041950 38.5102 -70.7831 HU 82 1 16 45
1950243N15304 1950 68 NA NA DOG 1950-09-12 00:00:00 ET 39.0000 -70.0000 80 hurdat_atl main 284 261 O_____________ hurdat_atl AL041950 39.0000 -70.0000 EX 80 -4 15 55
1950243N15304 1950 68 NA NA DOG 1950-09-12 03:00:00 ET 39.3799 -69.2061 main 264 254 P_____________ AL041950 39.3799 -69.2061 EX 77 -4 14 60
1950243N15304 1950 68 NA NA DOG 1950-09-12 06:00:00 ET 39.7000 -68.4000 75 hurdat_atl main 259 255 O_____________ hurdat_atl AL041950 39.7000 -68.4000 EX 75 -4 14 61
1950243N15304 1950 68 NA NA DOG 1950-09-12 09:00:00 ET 40.0498 -67.6195 main 276 268 P_____________ AL041950 40.0498 -67.6195 EX 72 -4 13 59
1950243N15304 1950 68 NA NA DOG 1950-09-12 12:00:00 ET 40.4000 -66.9000 70 979 hurdat_atl main 296 296 O_____________ hurdat_atl AL041950 40.4000 -66.9000 EX 70 979 -4 12 55
1950243N15304 1950 68 NA NA DOG 1950-09-12 15:00:00 ET 40.7717 -66.2846 main 304 266 P_____________ AL041950 40.7717 -66.2846 EX 70 -4 11 52
1950243N15304 1950 68 NA NA DOG 1950-09-12 18:00:00 ET 41.1000 -65.7000 70 hurdat_atl main 266 244 O_____________ hurdat_atl AL041950 41.1000 -65.7000 EX 70 -4 11 59
1950243N15304 1950 68 NA NA DOG 1950-09-12 21:00:00 ET 41.3217 -65.0863 main 245 229 P_____________ AL041950 41.3217 -65.0863 EX 70 -4 11 68
1950243N15304 1950 68 NA NA DOG 1950-09-13 00:00:00 ET 41.5000 -64.4000 70 hurdat_atl main 234 229 O_____________ hurdat_atl AL041950 41.5000 -64.4000 EX 70 -4 12 71
1950243N15304 1950 68 NA NA DOG 1950-09-13 03:00:00 ET 41.7070 -63.6023 main 243 243 P_____________ AL041950 41.7070 -63.6023 EX 67 -4 13 73
1950243N15304 1950 68 NA NA DOG 1950-09-13 06:00:00 ET 41.9000 -62.7000 65 hurdat_atl main 271 271 O_____________ hurdat_atl AL041950 41.9000 -62.7000 EX 65 -4 14 75
1950243N15304 1950 68 NA NA DOG 1950-09-13 09:00:00 ET 42.0713 -61.7524 main 294 294 P_____________ AL041950 42.0713 -61.7524 EX 62 -4 15 79
1950243N15304 1950 68 NA NA DOG 1950-09-13 12:00:00 ET 42.2000 -60.7000 60 hurdat_atl main 323 323 O_____________ hurdat_atl AL041950 42.2000 -60.7000 EX 60 -4 17 83
1950243N15304 1950 68 NA NA DOG 1950-09-13 15:00:00 ET 42.2721 -59.5295 main 346 346 P_____________ AL041950 42.2721 -59.5295 EX 57 -4 18 87
1950243N15304 1950 68 NA NA DOG 1950-09-13 18:00:00 ET 42.3000 -58.3000 55 hurdat_atl main 392 392 O_____________ hurdat_atl AL041950 42.3000 -58.3000 EX 55 -4 18 89
1950243N15304 1950 68 NA NA DOG 1950-09-13 21:00:00 ET 42.2905 -57.1211 main 451 451 P_____________ AL041950 42.2905 -57.1211 EX 55 -4 18 90
1950243N15304 1950 68 NA NA DOG 1950-09-14 00:00:00 ET 42.3000 -55.9000 55 hurdat_atl main 500 474 O_____________ hurdat_atl AL041950 42.3000 -55.9000 EX 55 -4 19 87
1950243N15304 1950 68 NA NA DOG 1950-09-14 03:00:00 ET 42.3753 -54.6097 main 473 455 P_____________ AL041950 42.3753 -54.6097 EX 52 -4 20 84
1950243N15304 1950 68 NA NA DOG 1950-09-14 06:00:00 ET 42.5000 -53.2000 50 hurdat_atl main 455 446 O_____________ hurdat_atl AL041950 42.5000 -53.2000 EX 50 -4 21 83
1950243N15304 1950 68 NA NA DOG 1950-09-14 09:00:00 ET 42.6446 -51.7345 main 460 451 P_____________ AL041950 42.6446 -51.7345 EX 50 -4 24 83
1950243N15304 1950 68 NA NA DOG 1950-09-14 12:00:00 ET 42.8000 -50.0000 50 hurdat_atl main 491 491 O_____________ hurdat_atl AL041950 42.8000 -50.0000 EX 50 -4 29 85
1950243N15304 1950 68 NA NA DOG 1950-09-14 15:00:00 ET 42.8954 -47.8074 main 590 590 P_____________ AL041950 42.8954 -47.8074 EX 50 -4 33 87
1950243N15304 1950 68 NA NA DOG 1950-09-14 18:00:00 ET 43.0000 -45.5000 50 hurdat_atl main 723 723 O_____________ hurdat_atl AL041950 43.0000 -45.5000 EX 50 -4 32 86
1950243N15304 1950 68 NA NA DOG 1950-09-14 21:00:00 ET 43.1272 -43.4575 main 849 849 P_____________ AL041950 43.1272 -43.4575 EX 52 -4 29 82
1950243N15304 1950 68 NA NA DOG 1950-09-15 00:00:00 ET 43.4000 -41.5000 55 hurdat_atl main 974 974 O_____________ hurdat_atl AL041950 43.4000 -41.5000 EX 55 -4 29 76
1950243N15304 1950 68 NA NA DOG 1950-09-15 03:00:00 ET 43.8631 -39.5199 main 1087 1087 P_____________ AL041950 43.8631 -39.5199 EX 57 -4 31 69
1950243N15304 1950 68 NA NA DOG 1950-09-15 06:00:00 ET 44.5000 -37.5000 60 hurdat_atl main 1206 1206 O_____________ hurdat_atl AL041950 44.5000 -37.5000 EX 60 -4 32 65
1950243N15304 1950 68 NA NA DOG 1950-09-15 09:00:00 ET 45.2157 -35.3993 main 1336 1336 P_____________ AL041950 45.2157 -35.3993 EX 60 -4 34 64
1950243N15304 1950 68 NA NA DOG 1950-09-15 12:00:00 ET 46.0000 -33.2000 60 hurdat_atl main 1477 1477 O_____________ hurdat_atl AL041950 46.0000 -33.2000 EX 60 -4 35 64
1950243N15304 1950 68 NA NA DOG 1950-09-15 15:00:00 ET 46.7294 -30.9151 main 1578 1384 P_____________ AL041950 46.7294 -30.9151 EX 60 -4 35 65
1950243N15304 1950 68 NA NA DOG 1950-09-15 18:00:00 ET 47.5000 -28.5000 60 hurdat_atl main 1377 1171 O_____________ hurdat_atl AL041950 47.5000 -28.5000 EX 60 -4 38 65
1950243N15304 1950 68 NA NA DOG 1950-09-15 21:00:00 ET 48.3355 -25.8408 main 1158 951 P_____________ AL041950 48.3355 -25.8408 EX 62 -4 39 64
1950243N15304 1950 68 NA NA DOG 1950-09-16 00:00:00 ET 49.2000 -23.2000 65 hurdat_atl main 944 758 O_____________ hurdat_atl AL041950 49.2000 -23.2000 EX 65 -4 37 63
1950243N15304 1950 68 NA NA DOG 1950-09-16 03:00:00 ET 50.0299 -20.7859 main 751 583 P_____________ AL041950 50.0299 -20.7859 EX 65 -4 34 60
1950243N15304 1950 68 NA NA DOG 1950-09-16 06:00:00 ET 50.9000 -18.6000 65 hurdat_atl main 573 417 O_____________ hurdat_atl AL041950 50.9000 -18.6000 EX 65 -4 32 56
1950243N15304 1950 68 NA NA DOG 1950-09-16 09:00:00 ET 51.8614 -16.5361 main 409 300 P_____________ AL041950 51.8614 -16.5361 EX 65 -4 31 52
1950243N15304 1950 68 NA NA DOG 1950-09-16 12:00:00 ET 52.8000 -14.7000 65 hurdat_atl main 293 192 O_____________ hurdat_atl AL041950 52.8000 -14.7000 EX 65 -4 27 51
1950243N15304 1950 68 NA NA DOG 1950-09-16 15:00:00 ET 53.5917 -13.0369 main 185 103 P_____________ AL041950 53.5917 -13.0369 EX 65 -4 24 51
1950243N15304 1950 68 NA NA DOG 1950-09-16 18:00:00 ET 54.3000 -11.6000 65 hurdat_atl main 97 67 O_____________ hurdat_atl AL041950 54.3000 -11.6000 EX 65 -4 21 49
1950243N15304 1950 68 NA NA DOG 1950-09-16 21:00:00 ET 54.9696 -10.2981 main 89 71 P_____________ AL041950 54.9696 -10.2981 EX 65 -4 19 48
1950243N15304 1950 68 NA NA DOG 1950-09-17 00:00:00 ET 55.6000 -9.10000 65 hurdat_atl main 74 70 O_____________ hurdat_atl AL041950 55.6000 -9.10000 EX 65 -4 19 48
1950243N15304 1950 68 NA NA DOG 1950-09-17 03:00:00 ET 56.2220 -7.81819 main 104 30 P_____________ AL041950 56.2220 -7.81819 EX 65 -4 18 49
1950243N15304 1950 68 NA NA DOG 1950-09-17 06:00:00 ET 56.8000 -6.60000 65 hurdat_atl main 26 0 O_____________ hurdat_atl AL041950 56.8000 -6.60000 EX 65 -4 17 50
1950243N15304 1950 68 NA NA DOG 1950-09-17 09:00:00 ET 57.3152 -5.41394 main 0 0 P_____________ AL041950 57.3152 -5.41394 EX 62 -4 15 49
1950243N15304 1950 68 NA NA DOG 1950-09-17 12:00:00 ET 57.8000 -4.50000 60 hurdat_atl main 0 0 O_____________ hurdat_atl AL041950 57.8000 -4.50000 EX 60 -4 12 38
1950243N15304 1950 68 NA NA DOG 1950-09-17 15:00:00 ET 58.2986 -3.98941 main 0 0 P_____________ AL041950 58.2986 -3.98941 EX 57 -4 11 20
1950243N15304 1950 68 NA NA DOG 1950-09-17 18:00:00 ET 58.8000 -3.80000 55 hurdat_atl main 31 31 O_____________ hurdat_atl AL041950 58.8000 -3.80000 EX 55 -4 10 7
1950243N15304 1950 68 NA NA DOG 1950-09-17 21:00:00 ET 59.3005 -3.76545 main 80 80 P_____________ AL041950 59.3005 -3.76545 EX 55 -4 10 1
1950243N15304 1950 68 NA NA DOG 1950-09-18 00:00:00 ET 59.8000 -3.80000 55 hurdat_atl main 134 O_____________ hurdat_atl AL041950 59.8000 -3.80000 EX 55 -4 10 0

IBTrACS Databaseについて

本データベースは、米国NOAAが公開する1842年以降の世界の熱帯低気圧のベストトラックデータアーカイブInternational Best Track Archive for Climate Stewardship (IBTrACS)を、ウェブで閲覧しやすい形式に変換したものです。

最終更新日:2021-12-06